Time;durP1;ratioP1;P1;durP2;ratioP2;P2;SDS_P1;SDS_P2;PMS_P1;PMS_P2;Temp;Humidity;BMP_temperature;BMP_pressure;BME280_temperature;BME280_humidity;BME280_pressure;Samples;Min_cycle;Max_cycle;Signal;HPM_P1;HPM_P2
2021/04/29 06:27:49;;;;;;;12.97;6.63;;;11.20;99.90;;;;;;4962139;23;20242;-70
2021/04/29 06:30:16;;;;;;;14.33;7.53;;;11.10;99.90;;;;;;4972432;28;20207;-71
2021/04/29 06:32:43;;;;;;;13.30;6.33;;;11.10;99.90;;;;;;4934571;29;20212;-72
2021/04/29 06:35:10;;;;;;;15.83;7.43;;;11.10;99.90;;;;;;4932922;29;20256;-71
2021/04/29 06:37:37;;;;;;;12.03;6.73;;;11.10;99.90;;;;;;4933228;29;20675;-73
2021/04/29 06:40:04;;;;;;;11.13;6.70;;;11.30;99.90;;;;;;4934631;29;20668;-72
2021/04/29 06:42:30;;;;;;;12.87;6.27;;;11.50;99.90;;;;;;4935101;29;20221;-72
2021/04/29 06:44:58;;;;;;;18.63;7.03;;;11.50;99.90;;;;;;4935572;29;20236;-72
2021/04/29 06:47:27;;;;;;;10.03;5.93;;;11.60;99.90;;;;;;4935961;29;20628;-73
2021/04/29 06:49:54;;;;;;;8.93;6.10;;;11.70;99.90;;;;;;4936024;29;20213;-72
2021/04/29 06:52:20;;;;;;;10.23;5.93;;;11.60;99.90;;;;;;4935603;29;20576;-73
2021/04/29 06:54:47;;;;;;;9.10;5.37;;;11.70;99.90;;;;;;4935644;29;20236;-72
2021/04/29 06:57:13;;;;;;;10.40;5.37;;;11.60;99.90;;;;;;4935551;29;20335;-72
2021/04/29 06:59:39;;;;;;;9.40;5.60;;;11.60;99.90;;;;;;4936220;29;20215;-73
2021/04/29 07:02:07;;;;;;;9.20;5.63;;;11.60;99.90;;;;;;4935872;29;20200;-73
2021/04/29 07:04:33;;;;;;;10.23;5.53;;;11.70;99.90;;;;;;4935644;29;20584;-73
2021/04/29 07:07:00;;;;;;;11.23;6.70;;;11.60;99.90;;;;;;4935660;29;20219;-73
2021/04/29 07:09:26;;;;;;;19.47;6.07;;;11.50;99.90;;;;;;4935753;29;20592;-73
2021/04/29 07:11:53;;;;;;;10.73;6.30;;;11.40;99.90;;;;;;4935446;29;20683;-73
2021/04/29 07:14:20;;;;;;;9.93;6.43;;;11.30;99.90;;;;;;4935784;29;20639;-73
2021/04/29 07:16:46;;;;;;;9.63;5.40;;;11.20;99.90;;;;;;4935654;29;20599;-72
2021/04/29 07:19:13;;;;;;;7.77;4.83;;;11.10;99.90;;;;;;4935692;29;20212;-73
2021/04/29 07:21:40;;;;;;;12.40;4.90;;;11.00;99.90;;;;;;4935598;29;20212;-73
2021/04/29 07:24:07;;;;;;;7.77;4.80;;;11.00;99.90;;;;;;4935876;29;20232;-72
2021/04/29 07:26:34;;;;;;;8.37;4.57;;;10.80;99.90;;;;;;4935454;29;20221;-73
2021/04/29 07:29:00;;;;;;;8.83;4.50;;;10.80;99.90;;;;;;4935420;29;20304;-73
2021/04/29 07:31:26;;;;;;;8.63;4.70;;;10.90;99.90;;;;;;4935681;29;20580;-74
2021/04/29 07:33:52;;;;;;;9.87;4.40;;;10.90;99.90;;;;;;4935410;29;20239;-74
2021/04/29 07:36:19;;;;;;;6.97;3.70;;;10.90;99.90;;;;;;4935431;29;20236;-73
2021/04/29 07:38:46;;;;;;;6.30;3.67;;;10.90;99.90;;;;;;4935934;29;20215;-76
2021/04/29 07:41:12;;;;;;;7.30;3.67;;;10.90;99.90;;;;;;4939145;29;20216;-75
2021/04/29 07:43:39;;;;;;;6.03;3.93;;;10.90;99.90;;;;;;4938341;29;20628;-72
2021/04/29 07:46:05;;;;;;;5.23;3.90;;;10.70;99.90;;;;;;4938919;29;20260;-73
2021/04/29 07:48:32;;;;;;;5.23;3.67;;;10.70;99.90;;;;;;4938707;29;20628;-73
2021/04/29 07:50:59;;;;;;;6.90;3.50;;;10.60;99.90;;;;;;4938520;29;20216;-73
2021/04/29 07:53:27;;;;;;;5.57;3.60;;;10.50;99.90;;;;;;4946224;28;20227;-74
2021/04/29 07:55:53;;;;;;;5.67;3.50;;;10.30;99.90;;;;;;4957932;28;20231;-74
2021/04/29 07:58:20;;;;;;;5.13;3.53;;;10.20;99.90;;;;;;4960939;28;20594;-73
2021/04/29 08:00:46;;;;;;;5.20;3.00;;;10.30;99.90;;;;;;4976861;28;20614;-76
2021/04/29 08:03:12;;;;;;;5.87;3.43;;;10.40;99.90;;;;;;4962755;28;20243;-73
2021/04/29 08:05:39;;;;;;;6.97;3.87;;;10.50;99.90;;;;;;4963423;28;20211;-82
2021/04/29 08:08:05;;;;;;;8.73;3.30;;;10.60;99.90;;;;;;4975899;28;20212;-76
2021/04/29 08:10:33;;;;;;;9.77;3.60;;;10.60;99.90;;;;;;4971274;28;20212;-72
2021/04/29 08:12:59;;;;;;;9.13;3.17;;;10.50;99.90;;;;;;4955618;28;20685;-79
2021/04/29 08:15:26;;;;;;;5.77;2.97;;;10.30;99.90;;;;;;4956450;28;20271;-71
2021/04/29 08:17:52;;;;;;;8.20;3.20;;;10.10;99.90;;;;;;4955894;28;20288;-80
2021/04/29 08:20:19;;;;;;;4.43;2.40;;;10.00;99.90;;;;;;4959215;28;20207;-73
2021/04/29 08:22:46;;;;;;;7.27;2.90;;;10.00;99.90;;;;;;4958574;28;20263;-72
2021/04/29 08:25:13;;;;;;;4.37;3.03;;;9.90;99.90;;;;;;4956580;28;20235;-77
2021/04/29 08:27:41;;;;;;;11.70;2.80;;;9.80;99.90;;;;;;4963339;28;20742;-74
2021/04/29 08:30:08;;;;;;;6.47;2.63;;;9.70;99.90;;;;;;4975327;28;20215;-74
2021/04/29 08:32:35;;;;;;;5.03;2.33;;;9.60;99.90;;;;;;4967587;28;20212;-74
2021/04/29 08:35:01;;;;;;;3.53;2.30;;;9.50;99.90;;;;;;4955292;28;20228;-73
2021/04/29 08:37:27;;;;;;;5.50;2.20;;;9.40;99.90;;;;;;4956449;28;20235;-72
2021/04/29 08:39:53;;;;;;;6.17;2.50;;;9.30;99.90;;;;;;4957010;28;20208;-72
2021/04/29 08:42:20;;;;;;;13.53;2.17;;;9.30;99.90;;;;;;4956686;28;20208;-73
2021/04/29 08:44:47;;;;;;;3.93;2.10;;;9.30;99.90;;;;;;4957002;28;20232;-73
2021/04/29 08:47:14;;;;;;;4.10;2.00;;;9.20;99.90;;;;;;4965931;28;20210;-73
2021/04/29 08:49:41;;;;;;;2.93;2.00;;;9.10;99.90;;;;;;4975312;28;20579;-74
2021/04/29 08:52:09;;;;;;;10.77;1.93;;;9.00;99.90;;;;;;4958690;28;20204;-75
2021/04/29 08:54:37;;;;;;;4.83;2.00;;;8.90;99.90;;;;;;4956668;28;20671;-74
2021/04/29 08:57:03;;;;;;;2.33;1.60;;;8.90;99.90;;;;;;4958689;28;20239;-74
2021/04/29 08:59:30;;;;;;;1.83;1.40;;;8.80;99.90;;;;;;4956899;28;20236;-75
2021/04/29 09:01:57;;;;;;;2.87;1.50;;;8.80;99.90;;;;;;4956632;28;20215;-76
2021/04/29 09:04:24;;;;;;;2.60;1.70;;;8.80;99.90;;;;;;4957395;28;20228;-75
2021/04/29 09:06:51;;;;;;;17.17;2.97;;;8.90;99.90;;;;;;4958922;28;20294;-77
2021/04/29 09:09:19;;;;;;;1.80;1.23;;;9.00;99.90;;;;;;4960690;28;20208;-78
2021/04/29 09:11:50;;;;;;;1.10;0.97;;;9.10;99.90;;;;;;4959046;28;20215;-74
2021/04/29 09:14:29;;;;;;;2.50;1.00;;;9.10;99.90;;;;;;4959112;28;20224;-79
2021/04/29 09:16:57;;;;;;;5.50;1.10;;;9.10;99.90;;;;;;4957599;28;20235;-73
2021/04/29 09:19:32;;;;;;;2.67;0.90;;;9.10;99.90;;;;;;4958710;28;20288;-74
2021/04/29 09:21:59;;;;;;;1.47;1.00;;;9.10;99.90;;;;;;4957776;28;20211;-73
2021/04/29 09:24:32;;;;;;;2.10;0.80;;;9.20;99.90;;;;;;4956511;28;20228;-72
2021/04/29 09:27:12;;;;;;;1.20;1.00;;;9.30;99.90;;;;;;4956651;28;20594;-78
2021/04/29 09:29:53;;;;;;;2.80;1.30;;;9.30;99.90;;;;;;4956293;28;20210;-74
2021/04/29 09:32:38;;;;;;;1.73;0.90;;;9.40;99.90;;;;;;4955906;28;20226;-73
2021/04/29 09:35:07;;;;;;;2.30;1.10;;;9.50;99.90;;;;;;4956263;28;20224;-73
2021/04/29 09:37:34;;;;;;;1.70;0.90;;;9.60;99.90;;;;;;4955904;28;20323;-73
2021/04/29 09:40:03;;;;;;;1.63;0.97;;;9.60;99.90;;;;;;4955933;28;20208;-73
2021/04/29 09:42:31;;;;;;;2.80;1.30;;;9.60;99.90;;;;;;4955949;28;20666;-73
2021/04/29 09:44:58;;;;;;;2.53;1.30;;;9.70;99.90;;;;;;4955693;28;20232;-73
2021/04/29 09:47:24;;;;;;;2.67;1.50;;;9.70;99.90;;;;;;4962465;28;20269;-72
2021/04/29 09:49:51;;;;;;;1.63;1.20;;;9.50;99.90;;;;;;4974932;28;20204;-73
2021/04/29 09:52:19;;;;;;;2.93;1.50;;;9.30;99.90;;;;;;4969724;28;20204;-73
2021/04/29 09:54:46;;;;;;;3.60;1.50;;;9.30;99.90;;;;;;4955617;28;20234;-75
2021/04/29 09:57:14;;;;;;;3.03;1.70;;;9.10;99.90;;;;;;4955557;28;20236;-73
2021/04/29 09:59:43;;;;;;;1.47;1.20;;;8.90;99.90;;;;;;4955852;28;20211;-74
2021/04/29 10:02:11;;;;;;;2.70;1.87;;;8.90;99.90;;;;;;4954283;28;20205;-73
2021/04/29 10:04:39;;;;;;;2.60;1.37;;;8.80;99.90;;;;;;4955377;28;20272;-73
2021/04/29 10:07:08;;;;;;;5.47;2.07;;;8.90;99.90;;;;;;4948677;28;20204;-76
2021/04/29 10:09:35;;;;;;;2.60;1.60;;;9.00;99.90;;;;;;4956387;28;20682;-77
2021/04/29 10:12:05;;;;;;;2.77;1.90;;;9.10;99.90;;;;;;4956644;28;20208;-77
2021/04/29 10:14:34;;;;;;;3.23;1.93;;;9.10;99.90;;;;;;4974340;28;20704;-78
2021/04/29 10:17:04;;;;;;;2.23;1.50;;;9.00;99.90;;;;;;4963890;28;20231;-77
2021/04/29 10:19:32;;;;;;;4.57;2.00;;;9.00;99.90;;;;;;4954951;28;20232;-78
2021/04/29 10:22:00;;;;;;;2.43;1.70;;;9.00;99.90;;;;;;4955324;28;20211;-75
2021/04/29 10:24:27;;;;;;;3.70;1.80;;;9.30;99.90;;;;;;4957656;28;20708;-75
2021/04/29 10:27:02;;;;;;;2.87;1.60;;;9.30;99.90;;;;;;4964860;28;20222;-75
2021/04/29 10:29:28;;;;;;;2.80;1.80;;;9.40;99.90;;;;;;4955179;28;20211;-73
2021/04/29 10:31:56;;;;;;;3.63;1.80;;;9.40;99.90;;;;;;4954722;28;20271;-73
2021/04/29 10:34:23;;;;;;;3.47;1.87;;;9.60;99.90;;;;;;4954904;28;20224;-75
2021/04/29 10:36:51;;;;;;;2.50;1.33;;;9.80;99.90;;;;;;4954792;28;20239;-74
2021/04/29 10:39:18;;;;;;;2.40;1.30;;;9.80;99.90;;;;;;4955010;28;20203;-75
2021/04/29 10:41:48;;;;;;;2.00;1.23;;;9.80;99.90;;;;;;4954803;28;20263;-74
2021/04/29 10:44:17;;;;;;;3.10;1.80;;;9.70;99.90;;;;;;4954611;28;20299;-74
2021/04/29 10:46:44;;;;;;;4.83;1.90;;;9.90;99.90;;;;;;4954562;28;20235;-74
2021/04/29 10:49:13;;;;;;;4.73;1.67;;;10.10;99.90;;;;;;4955029;28;20559;-74
2021/04/29 10:51:41;;;;;;;3.83;1.77;;;10.10;99.90;;;;;;4954865;28;20219;-74
2021/04/29 10:54:10;;;;;;;6.03;2.00;;;10.20;99.90;;;;;;4954866;28;20232;-74
2021/04/29 10:56:36;;;;;;;2.57;1.50;;;10.20;99.90;;;;;;4954485;28;20232;-74
2021/04/29 10:59:13;;;;;;;3.40;1.90;;;10.20;99.90;;;;;;4954579;28;20583;-74
2021/04/29 11:01:41;;;;;;;3.90;1.90;;;10.50;99.90;;;;;;4963151;28;20210;-75
2021/04/29 11:04:19;;;;;;;3.90;1.57;;;10.90;99.90;;;;;;4970938;28;20290;-74
2021/04/29 11:06:46;;;;;;;3.07;1.40;;;10.90;99.90;;;;;;4954558;28;20219;-74
2021/04/29 11:09:18;;;;;;;2.60;1.70;;;10.80;99.90;;;;;;4954370;28;20208;-74
2021/04/29 11:11:45;;;;;;;3.60;1.77;;;10.70;99.90;;;;;;4954773;28;20208;-74
2021/04/29 11:14:14;;;;;;;2.27;1.77;;;10.50;99.90;;;;;;4956796;28;20695;-74
2021/04/29 11:16:50;;;;;;;3.97;1.90;;;10.40;99.90;;;;;;4958642;28;20283;-75
2021/04/29 11:19:39;;;;;;;5.30;1.87;;;10.60;99.90;;;;;;4959161;28;20212;-75
2021/04/29 11:22:06;;;;;;;2.70;1.73;;;10.70;99.90;;;;;;4959051;28;20210;-75
2021/04/29 11:24:34;;;;;;;3.77;2.10;;;10.80;99.90;;;;;;4953995;28;20232;-75
2021/04/29 11:27:01;;;;;;;4.20;2.10;;;10.90;99.90;;;;;;4956313;28;20220;-74
2021/04/29 11:29:37;;;;;;;2.90;2.13;;;10.80;99.90;;;;;;4958045;28;20220;-75
2021/04/29 11:32:04;;;;;;;9.00;2.40;;;10.70;99.90;;;;;;4974730;28;20543;-74
2021/04/29 11:34:43;;;;;;;5.17;2.23;;;10.60;99.90;;;;;;4972021;28;20274;-74
2021/04/29 11:37:10;;;;;;;3.23;2.23;;;10.60;99.90;;;;;;4956605;28;20715;-75
2021/04/29 11:39:37;;;;;;;4.40;2.77;;;10.70;99.90;;;;;;4957961;28;20562;-74
2021/04/29 11:42:04;;;;;;;4.73;2.80;;;10.60;99.90;;;;;;4957550;28;20212;-74
2021/04/29 11:44:30;;;;;;;3.90;2.63;;;10.60;99.90;;;;;;4970012;28;20714;-74
2021/04/29 11:47:00;;;;;;;6.70;2.50;;;10.60;99.90;;;;;;4957995;28;20212;-75
2021/04/29 11:49:26;;;;;;;4.67;2.97;;;10.50;99.90;;;;;;4957610;28;20215;-74
2021/04/29 11:51:53;;;;;;;4.10;2.60;;;10.50;99.90;;;;;;4956820;28;20215;-75
2021/04/29 11:54:19;;;;;;;5.50;2.60;;;10.20;99.90;;;;;;4957167;28;20287;-75
2021/04/29 11:56:47;;;;;;;3.83;2.20;;;10.20;99.90;;;;;;4957626;28;20227;-75
2021/04/29 11:59:15;;;;;;;5.67;2.83;;;10.20;99.90;;;;;;4956953;28;20555;-76
2021/04/29 12:01:42;;;;;;;7.27;3.07;;;10.10;99.90;;;;;;4957725;28;20518;-76
2021/04/29 12:04:16;;;;;;;6.30;3.53;;;10.10;99.90;;;;;;4956402;28;20232;-75
2021/04/29 12:06:47;;;;;;;5.00;2.80;;;10.20;99.90;;;;;;4957278;28;20203;-75
2021/04/29 12:09:14;;;;;;;3.23;2.50;;;10.10;99.90;;;;;;4957456;28;20230;-75
2021/04/29 12:11:40;;;;;;;7.63;2.60;;;10.10;99.90;;;;;;4957005;28;20208;-75
2021/04/29 12:14:07;;;;;;;5.47;2.37;;;10.10;99.90;;;;;;4957424;28;20228;-74
2021/04/29 12:16:33;;;;;;;4.30;2.53;;;10.10;99.90;;;;;;4957434;28;20291;-76
2021/04/29 12:19:00;;;;;;;4.63;2.43;;;10.10;99.90;;;;;;4960150;28;20271;-75
2021/04/29 12:21:28;;;;;;;4.93;2.73;;;10.20;99.90;;;;;;4969294;28;20209;-75
2021/04/29 12:23:56;;;;;;;4.53;2.27;;;10.30;99.90;;;;;;4958167;28;20574;-75
2021/04/29 12:26:30;;;;;;;3.83;2.50;;;10.50;99.90;;;;;;4949892;28;20679;-75
2021/04/29 12:29:00;;;;;;;9.60;2.67;;;10.70;99.90;;;;;;4957725;28;20215;-76
2021/04/29 12:31:27;;;;;;;6.13;2.40;;;10.90;99.90;;;;;;4964101;28;20261;-75
2021/04/29 12:33:55;;;;;;;5.67;2.50;;;11.10;99.90;;;;;;4975788;28;20583;-75
2021/04/29 12:36:22;;;;;;;3.93;2.40;;;11.20;99.90;;;;;;4975999;28;20581;-75
2021/04/29 12:38:50;;;;;;;4.70;2.67;;;11.20;99.90;;;;;;4974705;28;20210;-75
2021/04/29 12:41:17;;;;;;;4.80;2.70;;;11.10;99.90;;;;;;4975900;28;20218;-74
2021/04/29 12:43:43;;;;;;;4.83;2.67;;;11.00;99.90;;;;;;4968324;28;20572;-75
2021/04/29 12:46:10;;;;;;;7.73;2.73;;;11.00;99.90;;;;;;4957002;28;20671;-77
2021/04/29 12:48:38;;;;;;;3.77;2.70;;;11.00;99.90;;;;;;4957016;28;20208;-75
2021/04/29 12:51:08;;;;;;;8.57;2.63;;;11.10;99.90;;;;;;4957071;28;20243;-78
2021/04/29 12:53:38;;;;;;;5.63;2.90;;;11.00;99.90;;;;;;4956710;28;20227;-77
2021/04/29 12:56:06;;;;;;;5.07;2.70;;;11.00;99.90;;;;;;4956256;28;20658;-76
2021/04/29 12:58:34;;;;;;;4.53;2.60;;;10.80;99.90;;;;;;4956633;28;20247;-74
2021/04/29 13:01:03;;;;;;;4.37;2.37;;;10.60;99.90;;;;;;4944071;28;20580;-73
2021/04/29 13:03:34;;;;;;;4.33;2.27;;;10.50;99.90;;;;;;4936197;29;20640;-77
2021/04/29 13:06:02;;;;;;;6.03;2.80;;;10.40;99.90;;;;;;4936934;29;20213;-74
2021/04/29 13:08:28;;;;;;;4.20;2.57;;;10.40;99.90;;;;;;4936991;29;20216;-82
2021/04/29 13:10:54;;;;;;;5.10;2.50;;;10.40;99.90;;;;;;4937049;29;20208;-75
2021/04/29 13:13:30;;;;;;;4.90;2.93;;;10.20;99.90;;;;;;4937300;29;20240;-72
2021/04/29 13:15:56;;;;;;;5.37;2.63;;;10.10;99.90;;;;;;4937183;29;20237;-70
2021/04/29 13:18:26;;;;;;;6.27;2.27;;;10.20;99.90;;;;;;4936970;29;20223;-72
2021/04/29 13:20:53;;;;;;;5.53;2.47;;;10.20;99.90;;;;;;4950049;28;20562;-71
2021/04/29 13:23:20;;;;;;;4.37;2.53;;;10.30;99.90;;;;;;4955860;28;20699;-71
2021/04/29 13:25:47;;;;;;;9.43;2.77;;;10.30;99.90;;;;;;4956128;28;20215;-74
2021/04/29 13:28:13;;;;;;;6.90;2.83;;;10.40;99.90;;;;;;4955923;28;20224;-72
2021/04/29 13:30:40;;;;;;;4.73;2.33;;;10.40;99.90;;;;;;4956046;28;20240;-72
2021/04/29 13:33:09;;;;;;;5.57;2.50;;;10.30;99.90;;;;;;4956107;28;20228;-73
2021/04/29 13:35:35;;;;;;;6.50;2.67;;;10.10;99.90;;;;;;4956251;28;20208;-72
2021/04/29 13:38:02;;;;;;;8.27;3.10;;;10.10;99.90;;;;;;4956012;28;20247;-72
2021/04/29 13:40:28;;;;;;;4.77;2.50;;;10.20;99.90;;;;;;4955696;28;20220;-73
2021/04/29 13:42:54;;;;;;;5.00;2.70;;;10.40;99.90;;;;;;4955530;28;20215;-72
2021/04/29 13:45:20;;;;;;;4.83;2.83;;;10.40;99.90;;;;;;4955815;28;20208;-76
2021/04/29 13:47:47;;;;;;;8.37;2.63;;;10.50;99.90;;;;;;4955844;28;20211;-72
2021/04/29 13:50:14;;;;;;;4.33;2.50;;;10.50;99.90;;;;;;4955599;28;20208;-72
2021/04/29 13:52:40;;;;;;;5.13;2.57;;;10.60;99.90;;;;;;4956147;28;20216;-76
2021/04/29 13:55:09;;;;;;;5.43;2.67;;;10.70;99.90;;;;;;4955592;28;20231;-73
2021/04/29 13:57:35;;;;;;;6.50;2.47;;;10.90;99.90;;;;;;4955573;28;20250;-73
2021/04/29 14:00:01;;;;;;;3.70;2.13;;;11.00;99.90;;;;;;4955842;28;20212;-74
2021/04/29 14:02:29;;;;;;;6.97;2.30;;;11.10;99.90;;;;;;4955535;28;20247;-75
2021/04/29 14:04:56;;;;;;;4.53;2.30;;;11.30;99.90;;;;;;4956130;28;20262;-80
2021/04/29 14:07:22;;;;;;;3.67;2.30;;;11.30;99.90;;;;;;4956214;28;20259;-81
2021/04/29 14:09:48;;;;;;;5.60;2.10;;;11.50;99.90;;;;;;4955788;28;20208;-79
2021/04/29 14:12:15;;;;;;;3.80;2.37;;;11.50;99.90;;;;;;4955659;28;20283;-77
2021/04/29 14:14:44;;;;;;;5.70;2.50;;;11.50;99.90;;;;;;4955447;28;20224;-81
2021/04/29 14:17:11;;;;;;;6.53;2.50;;;11.40;99.90;;;;;;4955004;28;20236;-73
2021/04/29 14:19:37;;;;;;;4.70;2.47;;;11.50;99.90;;;;;;4958397;28;20247;-75
2021/04/29 14:22:04;;;;;;;4.60;1.63;;;11.60;99.90;;;;;;4974696;28;20215;-74
2021/04/29 14:24:30;;;;;;;3.80;2.33;;;11.80;99.90;;;;;;4975035;28;20223;-76
2021/04/29 14:26:57;;;;;;;7.17;2.40;;;12.00;99.90;;;;;;4974405;28;20219;-74
2021/04/29 14:29:23;;;;;;;5.17;2.30;;;12.10;99.90;;;;;;4974444;28;20671;-75
2021/04/29 14:31:50;;;;;;;4.07;2.33;;;12.20;99.90;;;;;;4973689;28;20211;-74
2021/04/29 14:34:16;;;;;;;7.50;2.47;;;12.30;99.90;;;;;;4974726;28;20227;-73
2021/04/29 14:36:42;;;;;;;3.27;2.67;;;12.50;99.90;;;;;;4974475;28;20234;-77
2021/04/29 14:39:09;;;;;;;4.50;2.60;;;12.50;99.90;;;;;;4973794;28;20570;-71
2021/04/29 14:41:35;;;;;;;5.50;2.70;;;12.60;99.90;;;;;;4974198;28;20543;-76
2021/04/29 14:44:02;;;;;;;3.50;2.50;;;12.60;99.50;;;;;;4960877;28;20227;-76
2021/04/29 14:46:28;;;;;;;3.73;2.47;;;12.50;99.90;;;;;;4954988;28;20253;-75
2021/04/29 14:48:54;;;;;;;3.47;2.40;;;12.10;98.80;;;;;;4954250;28;20230;-75
2021/04/29 14:51:21;;;;;;;7.67;2.70;;;11.80;98.80;;;;;;4954629;28;20204;-79
2021/04/29 14:53:47;;;;;;;4.83;2.43;;;11.60;99.70;;;;;;4954718;28;20367;-81
2021/04/29 14:56:14;;;;;;;6.10;2.57;;;11.40;99.90;;;;;;4954943;28;20216;-74
2021/04/29 14:58:40;;;;;;;3.73;2.47;;;11.40;99.90;;;;;;4954966;28;20214;-75
2021/04/29 15:01:07;;;;;;;3.03;2.00;;;11.50;99.90;;;;;;4954906;28;20214;-75
2021/04/29 15:03:33;;;;;;;3.70;2.27;;;11.60;99.80;;;;;;4954809;28;20228;-75
2021/04/29 15:05:59;;;;;;;5.97;2.20;;;11.70;99.90;;;;;;4954712;28;20208;-74
2021/04/29 15:08:26;;;;;;;3.07;2.07;;;11.80;99.80;;;;;;4954879;28;20222;-76
2021/04/29 15:10:52;;;;;;;4.10;2.10;;;11.70;99.90;;;;;;4954227;28;20690;-75
2021/04/29 15:13:19;;;;;;;3.70;1.90;;;11.60;99.50;;;;;;4954420;28;20239;-75
2021/04/29 15:15:45;;;;;;;5.90;2.40;;;11.40;99.90;;;;;;4954590;28;20216;-74
2021/04/29 15:18:12;;;;;;;3.57;2.17;;;11.30;99.90;;;;;;4954688;28;20235;-75
2021/04/29 15:20:39;;;;;;;4.93;2.03;;;11.40;99.90;;;;;;4965506;28;20565;-75
2021/04/29 15:23:05;;;;;;;4.17;2.30;;;11.60;99.90;;;;;;4973729;28;20235;-76
2021/04/29 15:25:32;;;;;;;3.53;2.33;;;12.00;99.90;;;;;;4973238;28;20678;-77
2021/04/29 15:27:58;;;;;;;5.17;2.30;;;12.00;99.90;;;;;;4973634;28;20222;-77
2021/04/29 15:30:26;;;;;;;3.07;2.20;;;12.20;99.90;;;;;;4973935;28;20670;-75
2021/04/29 15:32:52;;;;;;;3.57;2.03;;;12.40;99.90;;;;;;4973834;28;20215;-75
2021/04/29 15:35:18;;;;;;;3.13;1.90;;;12.60;99.60;;;;;;4973988;28;20278;-73
2021/04/29 15:37:45;;;;;;;3.87;2.30;;;12.50;98.60;;;;;;4968565;28;20243;-73
2021/04/29 15:40:13;;;;;;;4.47;2.00;;;12.40;98.80;;;;;;4954658;28;20636;-73
2021/04/29 15:42:40;;;;;;;5.00;2.43;;;12.40;98.60;;;;;;4954578;28;20549;-71
2021/04/29 15:45:08;;;;;;;3.80;2.07;;;12.50;98.80;;;;;;4954344;28;20228;-73
2021/04/29 15:47:35;;;;;;;5.03;1.90;;;12.70;98.80;;;;;;4954909;28;20231;-73
2021/04/29 15:50:02;;;;;;;5.90;1.73;;;12.50;96.00;;;;;;4954716;28;20208;-73
2021/04/29 15:52:28;;;;;;;3.80;1.70;;;12.50;96.00;;;;;;4954348;28;20208;-73
2021/04/29 15:54:55;;;;;;;4.97;1.80;;;12.40;96.20;;;;;;4954587;28;20327;-73
2021/04/29 15:57:21;;;;;;;2.40;1.77;;;12.40;96.50;;;;;;4954080;28;20235;-74
2021/04/29 15:59:47;;;;;;;2.83;1.77;;;12.40;97.20;;;;;;4955198;28;20212;-78
2021/04/29 16:02:14;;;;;;;4.73;2.07;;;12.60;96.80;;;;;;4957603;28;20204;-73
2021/04/29 16:04:41;;;;;;;3.07;1.83;;;12.50;96.60;;;;;;4957461;28;20228;-73
2021/04/29 16:07:07;;;;;;;5.07;1.70;;;12.40;96.40;;;;;;4957670;28;20215;-74
2021/04/29 16:09:34;;;;;;;3.87;1.87;;;12.30;96.40;;;;;;4957812;28;20212;-73
2021/04/29 16:12:00;;;;;;;2.07;1.40;;;12.30;96.70;;;;;;4957506;28;20204;-74
2021/04/29 16:14:27;;;;;;;5.50;2.23;;;12.30;95.50;;;;;;4956757;28;20338;-73
2021/04/29 16:16:53;;;;;;;3.40;1.57;;;12.40;94.70;;;;;;4957487;28;20235;-73
2021/04/29 16:19:20;;;;;;;6.13;1.93;;;12.40;94.60;;;;;;4957660;28;20255;-73
2021/04/29 16:21:48;;;;;;;4.30;1.77;;;12.40;94.40;;;;;;4976787;28;20211;-73
2021/04/29 16:24:14;;;;;;;3.73;1.50;;;12.30;95.00;;;;;;4976763;28;20231;-74
2021/04/29 16:26:41;;;;;;;4.10;1.50;;;12.30;95.00;;;;;;4976104;28;20218;-74
2021/04/29 16:29:07;;;;;;;4.33;2.17;;;12.20;94.60;;;;;;4976070;28;20203;-74
2021/04/29 16:31:33;;;;;;;2.10;1.47;;;12.20;94.80;;;;;;4972816;28;20223;-78
2021/04/29 16:33:59;;;;;;;5.70;1.80;;;12.30;95.30;;;;;;4956739;28;20232;-79
2021/04/29 16:36:26;;;;;;;2.67;2.10;;;12.30;95.60;;;;;;4956704;28;20218;-77
2021/04/29 16:38:53;;;;;;;3.33;1.73;;;12.20;96.10;;;;;;4957392;28;20259;-80
2021/04/29 16:41:19;;;;;;;2.43;1.60;;;12.10;96.80;;;;;;4956980;28;20659;-77
2021/04/29 16:43:48;;;;;;;2.17;1.57;;;12.10;96.50;;;;;;4956915;28;20275;-79
2021/04/29 16:46:14;;;;;;;2.77;1.10;;;12.20;95.80;;;;;;4956734;28;20212;-78
2021/04/29 16:48:41;;;;;;;4.50;1.30;;;12.10;95.00;;;;;;4956238;28;20266;-78
2021/04/29 16:51:09;;;;;;;4.53;1.30;;;12.00;95.40;;;;;;4955972;28;20215;-79
2021/04/29 16:53:35;;;;;;;2.77;1.27;;;11.80;95.40;;;;;;4956099;28;20675;-77
2021/04/29 16:56:02;;;;;;;3.03;1.63;;;11.60;94.90;;;;;;4956153;28;20215;-77
2021/04/29 16:58:28;;;;;;;2.13;1.50;;;11.50;94.60;;;;;;4955210;28;20239;-77
2021/04/29 17:00:55;;;;;;;5.77;1.90;;;11.50;95.50;;;;;;4956035;28;20212;-78
2021/04/29 17:03:21;;;;;;;3.13;1.90;;;11.60;96.10;;;;;;4956220;28;20239;-78
2021/04/29 17:05:47;;;;;;;3.97;1.83;;;11.60;96.10;;;;;;4956386;28;20247;-78
2021/04/29 17:08:13;;;;;;;2.07;1.67;;;11.60;96.00;;;;;;4956075;28;20216;-77
2021/04/29 17:10:40;;;;;;;3.20;2.00;;;11.70;96.50;;;;;;4956421;28;20208;-78
2021/04/29 17:13:07;;;;;;;3.67;1.80;;;11.60;97.10;;;;;;4955130;28;20243;-77
2021/04/29 17:15:33;;;;;;;6.87;3.10;;;11.50;97.50;;;;;;4956047;28;20262;-76
2021/04/29 17:18:00;;;;;;;4.47;2.40;;;11.60;97.10;;;;;;4955447;28;20232;-81
2021/04/29 17:20:27;;;;;;;3.43;1.80;;;11.60;97.50;;;;;;4965205;28;20204;-79
2021/04/29 17:22:53;;;;;;;2.90;1.50;;;11.50;97.20;;;;;;4975356;28;20207;-75
2021/04/29 17:25:20;;;;;;;3.03;1.70;;;11.50;97.20;;;;;;4975029;28;20269;-75
2021/04/29 17:27:49;;;;;;;4.67;1.60;;;11.30;97.00;;;;;;4955752;28;20216;-76
2021/04/29 17:30:18;;;;;;;3.87;1.87;;;11.40;97.50;;;;;;4955712;28;20208;-75
2021/04/29 17:32:46;;;;;;;3.33;1.60;;;11.30;98.00;;;;;;4955582;28;20216;-76
2021/04/29 17:35:14;;;;;;;2.87;1.53;;;11.30;97.70;;;;;;4955519;28;20274;-76
2021/04/29 17:37:41;;;;;;;4.47;1.60;;;11.30;97.90;;;;;;4955117;28;20737;-76
2021/04/29 17:40:10;;;;;;;2.57;1.47;;;11.20;97.80;;;;;;4955846;28;20211;-76
2021/04/29 17:42:36;;;;;;;3.33;1.47;;;11.10;97.90;;;;;;4955193;28;20208;-76
2021/04/29 17:45:05;;;;;;;5.00;1.50;;;11.20;98.00;;;;;;4955237;28;20231;-76
2021/04/29 17:47:32;;;;;;;2.73;1.40;;;11.30;96.80;;;;;;4955128;28;20686;-75
2021/04/29 17:49:58;;;;;;;3.07;1.70;;;11.20;96.60;;;;;;4955327;28;20217;-76
2021/04/29 17:52:24;;;;;;;6.47;2.30;;;11.10;96.30;;;;;;4955142;28;20219;-75
2021/04/29 17:54:51;;;;;;;4.40;1.63;;;11.10;95.20;;;;;;4955217;28;20231;-75
2021/04/29 17:57:17;;;;;;;3.17;2.37;;;11.10;95.30;;;;;;4954824;28;20239;-76
2021/04/29 17:59:43;;;;;;;2.97;1.63;;;11.00;94.60;;;;;;4955273;28;20204;-76
2021/04/29 18:02:10;;;;;;;3.57;1.80;;;10.90;94.60;;;;;;4955174;28;20203;-75
2021/04/29 18:04:37;;;;;;;2.10;1.30;;;10.80;94.80;;;;;;4955207;28;20227;-75
2021/04/29 18:07:03;;;;;;;2.67;1.70;;;10.70;95.10;;;;;;4955016;28;20270;-75
2021/04/29 18:09:30;;;;;;;4.03;2.00;;;10.60;95.20;;;;;;4954949;28;20216;-76
2021/04/29 18:11:56;;;;;;;5.30;2.23;;;10.50;95.40;;;;;;4954834;28;20216;-76
2021/04/29 18:14:22;;;;;;;4.10;2.00;;;10.40;94.80;;;;;;4954578;28;20232;-75
2021/04/29 18:16:48;;;;;;;3.07;1.97;;;10.40;94.20;;;;;;4954561;28;20239;-77
2021/04/29 18:19:15;;;;;;;5.17;2.40;;;10.30;93.60;;;;;;4954121;28;20212;-78
2021/04/29 18:21:42;;;;;;;2.70;1.57;;;10.30;93.60;;;;;;4964594;28;20212;-77
2021/04/29 18:24:09;;;;;;;3.10;1.53;;;10.10;94.50;;;;;;4954571;28;20596;-78
2021/04/29 18:26:35;;;;;;;4.63;1.50;;;10.00;94.40;;;;;;4954766;28;20227;-78
2021/04/29 18:29:01;;;;;;;5.17;1.80;;;9.90;95.30;;;;;;4954282;28;20208;-78
2021/04/29 18:31:28;;;;;;;4.77;1.97;;;10.00;95.30;;;;;;4955180;28;20219;-82
2021/04/29 18:33:54;;;;;;;3.90;1.73;;;10.00;95.60;;;;;;4954703;28;20703;-85
2021/04/29 18:36:20;;;;;;;2.63;1.50;;;9.90;96.60;;;;;;4952091;28;20684;-78
2021/04/29 18:38:47;;;;;;;3.13;1.83;;;9.90;96.40;;;;;;4954808;28;20243;-78
2021/04/29 18:41:14;;;;;;;3.40;2.00;;;9.80;97.40;;;;;;4955151;28;20607;-78
2021/04/29 18:43:40;;;;;;;3.23;2.00;;;9.80;97.10;;;;;;4955562;28;20595;-76
2021/04/29 18:46:10;;;;;;;3.47;1.90;;;9.80;96.90;;;;;;4955199;28;20212;-77
2021/04/29 18:48:37;;;;;;;4.90;2.07;;;9.80;97.20;;;;;;4955054;28;20212;-78
2021/04/29 18:51:03;;;;;;;3.10;1.93;;;9.70;96.50;;;;;;4954844;28;20747;-77
2021/04/29 18:53:30;;;;;;;4.63;2.17;;;9.60;96.60;;;;;;4954892;28;20232;-77
2021/04/29 18:55:57;;;;;;;8.83;2.00;;;9.60;96.70;;;;;;4955437;28;20263;-77
2021/04/29 18:58:23;;;;;;;3.00;1.80;;;9.50;97.10;;;;;;4954868;28;20239;-77
2021/04/29 19:00:49;;;;;;;5.23;1.93;;;9.50;97.40;;;;;;4955070;28;20231;-76
2021/04/29 19:03:15;;;;;;;2.27;1.57;;;9.40;97.90;;;;;;4954977;28;20230;-77
2021/04/29 19:05:42;;;;;;;3.37;1.80;;;9.30;98.10;;;;;;4954940;28;20216;-75
2021/04/29 19:08:09;;;;;;;2.60;1.90;;;9.20;98.40;;;;;;4955014;28;20208;-78
2021/04/29 19:10:36;;;;;;;6.37;2.20;;;9.10;97.40;;;;;;4954722;28;20212;-77
2021/04/29 19:13:03;;;;;;;3.33;2.27;;;9.20;97.30;;;;;;4954749;28;20208;-77
2021/04/29 19:15:30;;;;;;;4.03;1.90;;;9.10;97.60;;;;;;4954817;28;20218;-77